createdAt,value
2018-07-31T00:00:52.206Z,8.50
2018-07-31T00:03:19.858Z,9.40
2018-07-31T00:05:47.497Z,9.13
2018-07-31T00:08:15.008Z,8.70
2018-07-31T00:10:42.576Z,9.10
2018-07-31T00:13:10.174Z,9.20
2018-07-31T00:15:37.761Z,9.50
2018-07-31T00:18:05.401Z,10.57
2018-07-31T00:20:33.024Z,10.40
2018-07-31T00:23:00.576Z,11.10
2018-07-31T00:25:28.203Z,10.00
2018-07-31T00:27:55.760Z,9.67
2018-07-31T00:30:23.294Z,11.70
2018-07-31T00:32:50.780Z,11.97
2018-07-31T00:35:18.308Z,10.87
2018-07-31T00:37:46.487Z,10.40
2018-07-31T00:40:14.090Z,11.30
2018-07-31T00:42:41.674Z,10.10
2018-07-31T00:45:09.079Z,9.67
2018-07-31T00:47:37.670Z,10.60
2018-07-31T00:50:05.326Z,11.57
2018-07-31T00:52:32.858Z,10.77
2018-07-31T00:55:00.353Z,9.97
2018-07-31T00:57:27.902Z,9.53
2018-07-31T00:59:55.493Z,10.40
2018-07-31T01:02:23.089Z,10.67
2018-07-31T01:04:51.160Z,10.90
2018-07-31T01:07:18.676Z,10.80
2018-07-31T01:09:46.241Z,11.10
2018-07-31T01:12:14.788Z,10.73
2018-07-31T01:14:42.380Z,10.97
2018-07-31T01:17:09.949Z,11.10
2018-07-31T01:19:37.543Z,10.57
2018-07-31T01:22:05.143Z,10.30
2018-07-31T01:24:33.372Z,10.20
2018-07-31T01:27:00.901Z,12.23
2018-07-31T01:29:28.568Z,10.90
2018-07-31T01:31:56.086Z,11.00
2018-07-31T01:34:23.597Z,11.27
2018-07-31T01:36:51.127Z,13.30
2018-07-31T01:39:18.659Z,11.17
2018-07-31T01:41:46.244Z,10.97
2018-07-31T01:44:13.832Z,13.57
2018-07-31T01:46:41.411Z,11.47
2018-07-31T01:49:08.991Z,11.00
2018-07-31T01:51:36.616Z,11.07
2018-07-31T01:54:04.211Z,10.93
2018-07-31T01:56:31.763Z,10.87
2018-07-31T01:58:59.379Z,10.43
2018-07-31T02:01:26.950Z,10.70
2018-07-31T02:03:54.548Z,9.53
2018-07-31T02:06:26.861Z,10.63
2018-07-31T02:08:55.071Z,10.07
2018-07-31T02:11:22.649Z,11.47
2018-07-31T02:13:50.657Z,11.03
2018-07-31T02:16:18.244Z,9.67
2018-07-31T02:18:45.777Z,9.93
2018-07-31T02:21:13.471Z,10.60
2018-07-31T02:23:42.057Z,10.30
2018-07-31T02:26:09.625Z,10.37
2018-07-31T02:28:37.236Z,10.07
2018-07-31T02:31:04.865Z,10.50
2018-07-31T02:33:32.444Z,11.60
2018-07-31T02:35:59.967Z,10.00
2018-07-31T02:38:27.590Z,11.13
2018-07-31T02:40:55.149Z,9.73
2018-07-31T02:43:22.760Z,10.73
2018-07-31T02:45:50.318Z,10.23
2018-07-31T02:48:17.888Z,11.00
2018-07-31T02:50:45.459Z,10.93
2018-07-31T02:53:14.047Z,11.30
2018-07-31T02:55:41.766Z,10.20
2018-07-31T02:58:09.425Z,11.23
2018-07-31T03:00:36.918Z,11.00
2018-07-31T03:03:04.534Z,10.77
2018-07-31T03:05:32.148Z,11.60
2018-07-31T03:07:59.782Z,11.17
2018-07-31T03:10:27.322Z,10.90
2018-07-31T03:12:54.953Z,11.07
2018-07-31T03:15:22.507Z,11.43
2018-07-31T03:17:50.056Z,11.33
2018-07-31T03:20:17.639Z,10.70
2018-07-31T03:22:45.178Z,10.83
2018-07-31T03:25:12.762Z,11.00
2018-07-31T03:27:40.390Z,10.70
2018-07-31T03:30:07.968Z,11.67
2018-07-31T03:32:35.573Z,11.17
2018-07-31T03:35:03.300Z,12.03
2018-07-31T03:37:30.879Z,10.43
2018-07-31T03:39:58.511Z,12.57
2018-07-31T03:42:26.083Z,11.13
2018-07-31T03:44:53.691Z,12.03
2018-07-31T03:47:21.317Z,10.87
2018-07-31T03:49:48.880Z,11.10
2018-07-31T03:52:16.499Z,12.10
2018-07-31T03:54:44.030Z,12.47
2018-07-31T03:57:11.583Z,10.60
2018-07-31T03:59:39.147Z,11.27
2018-07-31T04:02:06.779Z,14.47
2018-07-31T04:04:35.520Z,12.03
2018-07-31T04:07:03.122Z,12.27
2018-07-31T04:09:30.699Z,10.73
2018-07-31T04:11:58.169Z,11.67
2018-07-31T04:14:25.748Z,11.53
2018-07-31T04:16:53.439Z,11.53
2018-07-31T04:19:21.041Z,11.73
2018-07-31T04:21:48.576Z,11.30
2018-07-31T04:24:16.249Z,10.20
2018-07-31T04:26:43.792Z,12.27
2018-07-31T04:29:11.330Z,11.40
2018-07-31T04:31:38.891Z,12.23
2018-07-31T04:34:07.158Z,11.93
2018-07-31T04:36:34.859Z,12.00
2018-07-31T04:39:04.162Z,10.50
2018-07-31T04:41:31.747Z,12.43
2018-07-31T04:43:59.299Z,12.87
2018-07-31T04:46:26.917Z,12.03
2018-07-31T04:48:55.159Z,14.03
2018-07-31T04:51:22.707Z,13.37
2018-07-31T04:53:50.247Z,12.03
2018-07-31T04:56:17.782Z,12.13
2018-07-31T04:58:45.290Z,12.33
2018-07-31T05:01:12.915Z,12.00
2018-07-31T05:03:40.459Z,11.60
2018-07-31T05:06:08.037Z,12.60
2018-07-31T05:08:35.610Z,14.27
2018-07-31T05:11:03.119Z,13.43
2018-07-31T05:13:30.616Z,13.43
2018-07-31T05:15:58.185Z,14.10
2018-07-31T05:18:27.499Z,13.43
2018-07-31T05:20:55.122Z,13.13
2018-07-31T05:23:22.673Z,13.13
2018-07-31T05:25:50.225Z,12.90
2018-07-31T05:28:17.787Z,13.30
2018-07-31T05:30:45.425Z,13.40
2018-07-31T05:33:12.964Z,13.43
2018-07-31T05:35:40.515Z,13.00
2018-07-31T05:38:08.996Z,11.87
2018-07-31T05:40:36.688Z,13.03
2018-07-31T05:43:04.471Z,13.43
2018-07-31T05:45:32.623Z,14.40
2018-07-31T05:48:00.255Z,15.30
2018-07-31T05:50:27.848Z,15.13
2018-07-31T05:52:55.396Z,14.17
2018-07-31T05:55:23.059Z,15.20
2018-07-31T05:57:50.708Z,13.57
2018-07-31T06:00:18.369Z,13.40
2018-07-31T06:02:45.976Z,13.83
2018-07-31T06:05:13.532Z,14.67
2018-07-31T06:07:41.127Z,13.47
2018-07-31T06:10:08.834Z,15.23
2018-07-31T06:12:36.508Z,14.33
2018-07-31T06:15:05.380Z,13.80
2018-07-31T06:17:32.943Z,15.97
2018-07-31T06:20:00.571Z,16.47
2018-07-31T06:22:28.171Z,13.80
2018-07-31T06:24:55.751Z,14.27
2018-07-31T06:27:23.422Z,15.00
2018-07-31T06:29:51.039Z,15.23
2018-07-31T06:32:18.639Z,17.00
2018-07-31T06:34:46.236Z,18.67
2018-07-31T06:37:13.724Z,20.83
2018-07-31T06:39:41.411Z,25.00
2018-07-31T06:42:09.220Z,18.90
2018-07-31T06:44:36.845Z,19.73
2018-07-31T06:47:04.398Z,18.10
2018-07-31T06:49:31.955Z,21.43
2018-07-31T06:51:59.488Z,18.93
2018-07-31T06:54:27.075Z,16.57
2018-07-31T06:56:54.746Z,19.90
2018-07-31T06:59:22.303Z,17.77
2018-07-31T07:01:49.870Z,19.83
2018-07-31T07:04:17.486Z,18.63
2018-07-31T07:06:45.051Z,17.63
2018-07-31T07:09:12.681Z,17.70
2018-07-31T07:11:40.398Z,16.70
2018-07-31T07:14:08.062Z,19.03
2018-07-31T07:16:35.728Z,18.00
2018-07-31T07:19:03.488Z,16.10
2018-07-31T07:21:31.169Z,14.97
2018-07-31T07:23:58.745Z,19.57
2018-07-31T07:26:26.339Z,16.83
2018-07-31T07:28:53.969Z,18.03
2018-07-31T07:31:21.610Z,16.77
2018-07-31T07:33:49.189Z,16.73
2018-07-31T07:36:16.743Z,15.93
2018-07-31T07:38:44.294Z,14.50
2018-07-31T07:41:11.889Z,16.63
2018-07-31T07:43:40.414Z,16.20
2018-07-31T07:46:07.984Z,16.17
2018-07-31T07:48:35.572Z,14.47
2018-07-31T07:51:03.256Z,16.30
2018-07-31T07:53:30.812Z,15.40
2018-07-31T07:55:58.385Z,15.97
2018-07-31T07:58:25.921Z,15.33
2018-07-31T08:00:53.655Z,13.27
2018-07-31T08:03:22.191Z,14.10
2018-07-31T08:05:50.473Z,13.50
2018-07-31T08:08:18.066Z,14.03
2018-07-31T08:10:45.670Z,14.03
2018-07-31T08:13:13.240Z,14.40
2018-07-31T08:15:40.827Z,13.20
2018-07-31T08:18:08.394Z,14.90
2018-07-31T08:20:36.003Z,13.17
2018-07-31T08:23:03.725Z,12.33
2018-07-31T08:25:31.366Z,12.17
2018-07-31T08:27:59.018Z,11.47
2018-07-31T08:30:26.643Z,10.93
2018-07-31T08:32:54.217Z,11.47
2018-07-31T08:35:21.757Z,12.37
2018-07-31T08:37:49.334Z,11.77
2018-07-31T08:40:17.526Z,11.67
2018-07-31T08:42:45.100Z,11.90
2018-07-31T08:45:12.759Z,11.60
2018-07-31T08:47:40.488Z,12.87
2018-07-31T08:50:08.141Z,10.93
2018-07-31T08:52:35.703Z,10.93
2018-07-31T08:55:03.484Z,9.50
2018-07-31T08:57:31.698Z,10.07
2018-07-31T08:59:59.263Z,10.00
2018-07-31T09:02:26.817Z,9.70
2018-07-31T09:04:55.314Z,9.10
2018-07-31T09:07:22.948Z,9.20
2018-07-31T09:09:50.571Z,9.43
2018-07-31T09:12:18.194Z,9.27
2018-07-31T09:14:45.796Z,10.60
2018-07-31T09:17:13.345Z,9.83
2018-07-31T09:19:40.931Z,10.23
2018-07-31T09:22:08.535Z,8.93
2018-07-31T09:24:36.750Z,10.00
2018-07-31T09:27:04.344Z,8.93
2018-07-31T09:29:32.569Z,10.27
2018-07-31T09:32:00.140Z,12.50
2018-07-31T09:34:27.616Z,10.00
2018-07-31T09:36:55.244Z,9.10
2018-07-31T09:39:22.800Z,8.87
2018-07-31T09:41:50.391Z,9.03
2018-07-31T09:44:17.978Z,9.20
2018-07-31T09:46:45.545Z,9.10
2018-07-31T09:49:13.159Z,8.73
2018-07-31T09:51:40.770Z,9.63
2018-07-31T09:54:08.363Z,9.67
2018-07-31T09:56:36.732Z,9.50
2018-07-31T09:59:04.554Z,9.97
2018-07-31T10:01:32.172Z,9.07
2018-07-31T10:03:59.862Z,8.93
2018-07-31T10:06:28.132Z,8.67
2018-07-31T10:08:56.241Z,9.60
2018-07-31T10:11:23.831Z,8.80
2018-07-31T10:13:51.381Z,7.50
2018-07-31T10:16:18.963Z,9.50
2018-07-31T10:18:46.751Z,8.20
2018-07-31T10:21:14.438Z,10.10
2018-07-31T10:23:42.090Z,8.33
2018-07-31T10:26:09.709Z,8.10
2018-07-31T10:28:37.325Z,8.50
2018-07-31T10:31:05.162Z,7.70
2018-07-31T10:33:32.744Z,9.20
2018-07-31T10:36:00.374Z,7.97
2018-07-31T10:38:27.948Z,8.87
2018-07-31T10:40:55.546Z,8.60
2018-07-31T10:43:23.146Z,8.90
2018-07-31T10:45:50.628Z,9.63
2018-07-31T10:48:18.247Z,8.50
2018-07-31T10:50:45.867Z,7.90
2018-07-31T10:53:13.439Z,9.10
2018-07-31T10:55:41.234Z,8.23
2018-07-31T10:58:08.917Z,8.73
2018-07-31T11:00:36.527Z,8.00
2018-07-31T11:03:04.275Z,7.73
2018-07-31T11:05:31.878Z,8.50
2018-07-31T11:07:59.359Z,7.57
2018-07-31T11:10:26.997Z,7.97
2018-07-31T11:12:54.554Z,8.20
2018-07-31T11:15:22.183Z,8.50
2018-07-31T11:17:49.782Z,8.73
2018-07-31T11:20:18.016Z,7.77
2018-07-31T11:22:45.664Z,8.47
2018-07-31T11:25:13.319Z,8.67
2018-07-31T11:27:40.960Z,8.00
2018-07-31T11:30:08.596Z,8.40
2018-07-31T11:32:36.221Z,7.97
2018-07-31T11:35:03.965Z,8.30
2018-07-31T11:37:31.549Z,7.70
2018-07-31T11:39:59.126Z,8.10
2018-07-31T11:42:26.731Z,7.90
2018-07-31T11:44:54.328Z,8.40
2018-07-31T11:47:21.945Z,7.60
2018-07-31T11:49:49.577Z,8.03
2018-07-31T11:52:17.130Z,8.33
2018-07-31T11:54:44.726Z,8.13
2018-07-31T11:57:12.321Z,7.33
2018-07-31T11:59:39.900Z,8.43
2018-07-31T12:02:07.596Z,8.30
2018-07-31T12:04:35.203Z,7.97
2018-07-31T12:07:02.868Z,8.10
2018-07-31T12:09:30.481Z,7.70
2018-07-31T12:11:58.105Z,8.13
2018-07-31T12:14:25.684Z,7.23
2018-07-31T12:16:53.286Z,6.63
2018-07-31T12:19:21.562Z,7.87
2018-07-31T12:21:49.176Z,7.70
2018-07-31T12:24:16.738Z,6.77
2018-07-31T12:26:44.380Z,7.53
2018-07-31T12:29:11.952Z,7.60
2018-07-31T12:31:40.475Z,6.47
2018-07-31T12:34:08.123Z,7.70
2018-07-31T12:36:35.752Z,6.50
2018-07-31T12:39:05.530Z,7.20
2018-07-31T12:41:33.133Z,7.03
2018-07-31T12:44:00.748Z,7.87
2018-07-31T12:46:28.442Z,7.20
2018-07-31T12:48:56.087Z,7.43
2018-07-31T12:51:23.742Z,7.03
2018-07-31T12:53:51.433Z,7.10
2018-07-31T12:56:19.114Z,6.57
2018-07-31T12:58:46.800Z,7.53
2018-07-31T13:01:14.475Z,7.80
2018-07-31T13:03:42.114Z,7.40
2018-07-31T13:06:09.762Z,6.67
2018-07-31T13:08:37.554Z,7.90
2018-07-31T13:11:05.201Z,6.30
2018-07-31T13:13:32.864Z,7.17
2018-07-31T13:16:00.534Z,6.80
2018-07-31T13:18:28.203Z,8.03
2018-07-31T13:20:55.875Z,7.33
2018-07-31T13:23:23.496Z,7.53
2018-07-31T13:25:51.161Z,6.83
2018-07-31T13:28:18.869Z,6.87
2018-07-31T13:30:46.483Z,7.43
2018-07-31T13:33:14.130Z,7.47
2018-07-31T13:35:41.810Z,6.87
2018-07-31T13:38:09.373Z,6.93
2018-07-31T13:40:36.884Z,7.73
2018-07-31T13:43:06.642Z,7.87
2018-07-31T13:45:34.257Z,7.60
2018-07-31T13:48:01.901Z,7.90
2018-07-31T13:50:30.050Z,7.77
2018-07-31T13:52:57.686Z,7.03
2018-07-31T13:55:25.247Z,7.47
2018-07-31T13:57:52.889Z,7.20
2018-07-31T14:00:20.466Z,7.53
2018-07-31T14:02:48.120Z,7.40
2018-07-31T14:05:15.745Z,7.13
2018-07-31T14:07:45.482Z,6.90
2018-07-31T14:10:13.110Z,7.10
2018-07-31T14:12:40.764Z,6.90
2018-07-31T14:15:08.352Z,6.60
2018-07-31T14:17:35.934Z,8.43
2018-07-31T14:20:03.765Z,6.70
2018-07-31T14:22:31.311Z,7.60
2018-07-31T14:24:58.875Z,8.30
2018-07-31T14:27:26.461Z,7.27
2018-07-31T14:29:54.000Z,7.30
2018-07-31T14:32:22.512Z,7.93
2018-07-31T14:34:50.082Z,6.87
2018-07-31T14:37:17.676Z,7.30
2018-07-31T14:39:45.227Z,7.47
2018-07-31T14:42:20.697Z,6.80
2018-07-31T14:44:54.445Z,6.63
2018-07-31T14:47:22.024Z,7.40
2018-07-31T14:49:50.125Z,7.07
2018-07-31T14:52:17.732Z,7.27
2018-07-31T14:54:45.285Z,7.57
2018-07-31T14:57:12.911Z,7.43
2018-07-31T14:59:40.454Z,7.20
2018-07-31T15:02:07.976Z,7.17
2018-07-31T15:07:29.959Z,7.50
2018-07-31T15:11:56.573Z,8.00
2018-07-31T15:17:36.956Z,7.67
2018-07-31T15:20:10.788Z,6.77
2018-07-31T15:22:38.417Z,6.97
2018-07-31T15:25:06.017Z,6.77
2018-07-31T15:27:33.645Z,7.63
2018-07-31T15:30:01.229Z,7.43
2018-07-31T15:32:28.796Z,7.33
2018-07-31T15:34:56.380Z,7.80
2018-07-31T15:37:23.965Z,7.27
2018-07-31T15:39:51.550Z,7.67
2018-07-31T15:42:19.150Z,7.53
2018-07-31T15:44:46.695Z,6.57
2018-07-31T15:47:17.674Z,7.60
2018-07-31T15:55:12.403Z,7.70
2018-07-31T16:02:57.787Z,6.70
2018-07-31T16:05:25.421Z,7.20
2018-07-31T16:07:53.045Z,6.73
2018-07-31T16:10:20.666Z,7.43
2018-07-31T16:12:48.221Z,7.47
2018-07-31T16:21:52.657Z,7.13
2018-07-31T16:24:20.252Z,7.13
2018-07-31T16:26:47.838Z,7.00
2018-07-31T16:29:15.439Z,7.70
2018-07-31T16:31:43.115Z,7.33
2018-07-31T16:34:10.748Z,7.80
2018-07-31T16:36:38.386Z,7.77
2018-07-31T16:39:07.520Z,7.63
2018-07-31T16:41:35.159Z,8.03
2018-07-31T16:44:05.419Z,7.53
2018-07-31T16:46:33.394Z,6.83
2018-07-31T16:49:01.103Z,8.30
2018-07-31T16:51:28.927Z,8.40
2018-07-31T16:53:56.528Z,8.93
2018-07-31T16:56:24.237Z,10.80
2018-07-31T16:58:52.148Z,8.40
2018-07-31T17:01:19.840Z,8.77
2018-07-31T17:03:47.600Z,7.93
2018-07-31T17:06:15.339Z,9.73
2018-07-31T17:08:43.026Z,9.80
2018-07-31T17:11:10.692Z,8.17
2018-07-31T17:13:38.386Z,9.00
2018-07-31T17:16:06.116Z,10.40
2018-07-31T17:18:33.811Z,9.13
2018-07-31T17:21:01.377Z,11.60
2018-07-31T17:23:29.010Z,8.20
2018-07-31T17:25:56.729Z,10.17
2018-07-31T17:28:24.379Z,10.73
2018-07-31T17:30:52.047Z,10.00
2018-07-31T17:33:19.713Z,9.50
2018-07-31T17:35:47.429Z,10.40
2018-07-31T17:38:15.090Z,8.30
2018-07-31T17:40:42.746Z,10.67
2018-07-31T17:43:10.401Z,9.03
2018-07-31T17:45:38.066Z,9.23
2018-07-31T17:48:05.820Z,8.57
2018-07-31T17:50:33.568Z,8.30
2018-07-31T17:53:01.247Z,8.37
2018-07-31T17:55:28.979Z,8.80
2018-07-31T17:57:56.634Z,9.47
2018-07-31T18:00:24.295Z,8.50
2018-07-31T18:02:52.011Z,9.30
2018-07-31T18:05:19.667Z,9.30
2018-07-31T18:07:47.308Z,10.00
2018-07-31T18:10:14.942Z,13.33
2018-07-31T18:12:42.748Z,9.30
2018-07-31T18:15:10.321Z,9.30
2018-07-31T18:17:37.967Z,9.83
2018-07-31T18:20:06.567Z,9.07
2018-07-31T18:22:34.196Z,9.47
2018-07-31T18:25:01.833Z,9.03
2018-07-31T18:27:30.437Z,8.83
2018-07-31T18:29:58.058Z,10.70
2018-07-31T18:32:25.635Z,9.87
2018-07-31T18:34:53.212Z,9.27
2018-07-31T18:37:20.827Z,9.90
2018-07-31T18:39:48.388Z,8.63
2018-07-31T18:42:16.036Z,8.27
2018-07-31T18:44:43.636Z,9.43
2018-07-31T18:47:11.240Z,9.23
2018-07-31T18:49:38.882Z,9.57
2018-07-31T18:52:08.157Z,10.30
2018-07-31T18:54:36.659Z,10.70
2018-07-31T19:02:03.998Z,9.60
2018-07-31T19:04:31.593Z,9.83
2018-07-31T19:06:59.198Z,9.77
2018-07-31T19:09:26.844Z,9.47
2018-07-31T19:11:54.535Z,10.23
2018-07-31T19:14:22.250Z,12.17
2018-07-31T19:16:49.980Z,10.50
2018-07-31T19:19:17.659Z,9.63
2018-07-31T19:21:45.364Z,10.47
2018-07-31T19:24:13.045Z,10.87
2018-07-31T19:26:40.803Z,9.07
2018-07-31T19:29:08.481Z,12.00
2018-07-31T19:31:36.165Z,9.80
2018-07-31T19:34:04.058Z,11.03
2018-07-31T19:36:31.594Z,9.93
2018-07-31T19:38:59.259Z,11.13
2018-07-31T19:41:27.049Z,10.83
2018-07-31T19:43:54.803Z,12.27
2018-07-31T19:46:22.592Z,13.00
2018-07-31T19:48:50.405Z,12.30
2018-07-31T19:51:18.104Z,12.97
2018-07-31T19:53:45.828Z,22.33
2018-07-31T19:56:13.564Z,9.80
2018-07-31T19:59:06.995Z,10.90
2018-07-31T20:01:34.742Z,9.97
2018-07-31T20:04:02.441Z,10.37
2018-07-31T20:06:30.259Z,10.20
2018-07-31T20:08:58.009Z,10.50
2018-07-31T20:11:25.652Z,10.20
2018-07-31T20:13:53.406Z,9.83
2018-07-31T20:16:21.124Z,10.03
2018-07-31T20:18:48.844Z,10.20
2018-07-31T20:21:17.250Z,9.50
2018-07-31T20:23:45.281Z,9.63
2018-07-31T20:26:12.979Z,9.33
2018-07-31T20:28:40.777Z,9.93
2018-07-31T20:31:08.533Z,8.43
2018-07-31T20:33:36.226Z,8.10
2018-07-31T20:36:03.822Z,7.90
2018-07-31T20:38:31.479Z,8.60
2018-07-31T20:40:59.579Z,7.93
2018-07-31T20:43:27.233Z,8.83
2018-07-31T20:45:54.826Z,7.80
2018-07-31T20:48:22.386Z,8.13
2018-07-31T20:50:50.018Z,8.10
2018-07-31T20:53:18.323Z,8.60
